Time;durP1;ratioP1;P1;durP2;ratioP2;P2;SDS_P1;SDS_P2;PMS_P1;PMS_P2;Temp;Humidity;BMP_temperature;BMP_pressure;BME280_temperature;BME280_humidity;BME280_pressure;Samples;Min_cycle;Max_cycle;Signal;HPM_P1;HPM_P2
2023/01/02 00:00:44;;;;;;;5.80;3.00;;;9.70;99.90;;;;;;4938943;28;20236;-79
2023/01/02 00:03:10;;;;;;;7.80;3.50;;;9.70;99.90;;;;;;4928047;29;20318;-80
2023/01/02 00:05:39;;;;;;;6.47;2.77;;;9.70;99.90;;;;;;4928838;29;20319;-79
2023/01/02 00:08:07;;;;;;;6.20;3.00;;;9.70;99.90;;;;;;4927022;29;20287;-80
2023/01/02 00:10:34;;;;;;;7.83;3.00;;;9.70;99.90;;;;;;4928480;29;20224;-80
2023/01/02 00:13:01;;;;;;;6.13;2.60;;;9.70;99.90;;;;;;4927117;29;20866;-80
2023/01/02 00:15:28;;;;;;;7.50;2.83;;;9.70;99.90;;;;;;4942633;28;20235;-81
2023/01/02 00:17:55;;;;;;;5.67;2.67;;;9.70;99.90;;;;;;4942344;28;20800;-82
2023/01/02 00:20:22;;;;;;;6.63;2.40;;;9.70;99.90;;;;;;4953911;28;20775;-83
2023/01/02 00:22:48;;;;;;;6.97;3.07;;;9.60;99.90;;;;;;4938427;29;20232;-83
2023/01/02 00:25:16;;;;;;;7.77;3.17;;;9.60;99.90;;;;;;4955125;28;20235;-83
2023/01/02 00:27:43;;;;;;;6.47;2.80;;;9.60;99.90;;;;;;4937684;29;20295;-83
2023/01/02 00:30:12;;;;;;;6.23;2.63;;;9.60;99.90;;;;;;4927727;28;20227;-82
2023/01/02 00:32:39;;;;;;;5.57;3.07;;;9.50;99.90;;;;;;4951087;28;20230;-81
2023/01/02 00:35:07;;;;;;;7.43;3.00;;;9.50;99.90;;;;;;4952232;28;20262;-82
2023/01/02 00:37:34;;;;;;;5.10;2.90;;;9.50;99.90;;;;;;4936040;29;20227;-82
2023/01/02 00:40:00;;;;;;;4.97;2.97;;;9.40;99.90;;;;;;4934755;29;20314;-84
2023/01/02 00:42:28;;;;;;;7.27;3.43;;;9.40;99.90;;;;;;4932618;28;20308;-83
2023/01/02 00:44:55;;;;;;;6.53;3.23;;;9.40;99.90;;;;;;4953070;29;20239;-82
2023/01/02 00:47:22;;;;;;;6.07;2.77;;;9.40;99.90;;;;;;4933254;29;20289;-84
2023/01/02 00:49:49;;;;;;;5.63;3.07;;;9.40;99.90;;;;;;4950887;28;20235;-82
2023/01/02 00:52:16;;;;;;;4.60;2.63;;;9.40;99.90;;;;;;4951291;28;20224;-82
2023/01/02 00:54:43;;;;;;;9.47;3.27;;;9.40;99.90;;;;;;4949747;29;20242;-83
2023/01/02 00:57:10;;;;;;;8.13;3.10;;;9.50;99.90;;;;;;4950119;29;20227;-82
2023/01/02 00:59:38;;;;;;;9.03;3.70;;;9.40;99.90;;;;;;4953577;29;20257;-83
2023/01/02 01:02:05;;;;;;;5.73;3.10;;;9.40;99.90;;;;;;4936028;28;20326;-82
2023/01/02 01:04:34;;;;;;;9.60;3.43;;;9.40;99.90;;;;;;4936497;29;20294;-82
2023/01/02 01:07:01;;;;;;;10.40;3.80;;;9.40;99.90;;;;;;4935589;29;20292;-82
2023/01/02 01:09:28;;;;;;;6.67;3.30;;;9.40;99.90;;;;;;4934962;29;20793;-82
2023/01/02 01:11:54;;;;;;;6.03;3.17;;;9.30;99.90;;;;;;4936158;29;20330;-82
2023/01/02 01:14:22;;;;;;;6.80;3.33;;;9.30;99.90;;;;;;4951880;29;20607;-82
2023/01/02 01:16:50;;;;;;;5.90;3.20;;;9.30;99.90;;;;;;4935418;29;20220;-82
2023/01/02 01:19:17;;;;;;;5.80;3.50;;;9.20;99.90;;;;;;4949320;29;20235;-81
2023/01/02 01:21:44;;;;;;;6.33;3.60;;;9.30;99.90;;;;;;4933819;29;20613;-82
2023/01/02 01:24:11;;;;;;;7.20;4.07;;;9.20;99.90;;;;;;4931612;28;20253;-82
2023/01/02 01:26:38;;;;;;;6.00;3.60;;;9.20;99.90;;;;;;4931329;29;20226;-83
2023/01/02 01:29:05;;;;;;;8.97;4.60;;;9.20;99.90;;;;;;4927456;29;20896;-83
2023/01/02 01:31:32;;;;;;;7.70;4.27;;;9.20;99.90;;;;;;4947489;29;20230;-83
2023/01/02 01:34:00;;;;;;;7.30;3.93;;;9.20;99.90;;;;;;4932773;29;20235;-83
2023/01/02 01:36:27;;;;;;;7.17;3.80;;;9.20;99.90;;;;;;4933500;29;20322;-83
2023/01/02 01:38:54;;;;;;;8.43;3.90;;;9.20;99.90;;;;;;4951815;29;20265;-84
2023/01/02 01:41:24;;;;;;;7.20;3.60;;;9.20;99.90;;;;;;4933860;29;20726;-84
2023/01/02 01:43:53;;;;;;;8.50;3.83;;;9.20;99.90;;;;;;4933794;29;20246;-83
2023/01/02 01:46:26;;;;;;;6.03;3.70;;;9.20;99.90;;;;;;4934025;29;20277;-83
2023/01/02 01:48:58;;;;;;;6.63;3.70;;;9.20;99.90;;;;;;4933967;29;20231;-84
2023/01/02 01:51:27;;;;;;;8.70;4.50;;;9.20;99.90;;;;;;4952825;29;20230;-82
2023/01/02 01:54:01;;;;;;;7.63;4.20;;;9.20;99.90;;;;;;4950401;29;20259;-82
2023/01/02 01:56:28;;;;;;;7.60;4.33;;;9.20;99.90;;;;;;4935417;29;20263;-81
2023/01/02 01:58:54;;;;;;;8.83;4.07;;;9.20;99.90;;;;;;4932021;29;20833;-81
2023/01/02 02:01:21;;;;;;;6.43;4.43;;;9.20;99.90;;;;;;4948807;29;20322;-81
2023/01/02 02:03:50;;;;;;;7.57;4.20;;;9.20;99.90;;;;;;4931775;29;20227;-81
2023/01/02 02:06:19;;;;;;;6.73;4.00;;;9.20;99.90;;;;;;4931673;29;20659;-82
2023/01/02 02:08:52;;;;;;;8.30;4.33;;;9.20;99.90;;;;;;4932941;29;20973;-82
2023/01/02 02:11:19;;;;;;;7.73;4.40;;;9.20;99.90;;;;;;4932282;29;20713;-82
2023/01/02 02:13:47;;;;;;;9.70;4.83;;;9.20;99.90;;;;;;4933115;28;20305;-82
2023/01/02 02:16:24;;;;;;;9.97;4.53;;;9.20;99.90;;;;;;4952989;29;20317;-81
2023/01/02 02:19:06;;;;;;;9.13;4.53;;;9.30;99.90;;;;;;4937128;29;20219;-82
2023/01/02 02:22:01;;;;;;;7.83;4.67;;;9.30;99.90;;;;;;4953276;29;20258;-82
2023/01/02 02:25:10;;;;;;;8.63;4.77;;;9.20;99.90;;;;;;4951329;28;20675;-82
2023/01/02 02:28:33;;;;;;;8.80;4.70;;;9.30;99.90;;;;;;4930927;28;20231;-82
2023/01/02 02:31:11;;;;;;;10.13;5.57;;;9.30;99.90;;;;;;4951404;29;20261;-82
2023/01/02 02:33:47;;;;;;;6.60;4.30;;;9.30;99.90;;;;;;4951218;29;20229;-82
2023/01/02 02:36:19;;;;;;;6.53;4.53;;;9.30;99.90;;;;;;4953394;28;20230;-82
2023/01/02 02:38:59;;;;;;;8.33;4.77;;;9.30;99.90;;;;;;4952266;28;20230;-82
2023/01/02 02:41:33;;;;;;;7.40;4.57;;;9.30;99.90;;;;;;4954012;28;20265;-82
2023/01/02 02:44:18;;;;;;;7.60;4.40;;;9.30;99.90;;;;;;4953041;29;20293;-82
2023/01/02 02:46:56;;;;;;;8.03;4.50;;;9.40;99.90;;;;;;4954592;29;20269;-82
2023/01/02 02:49:33;;;;;;;10.30;5.17;;;9.30;99.90;;;;;;4955951;28;20266;-82
2023/01/02 02:52:05;;;;;;;6.53;4.53;;;9.30;99.90;;;;;;4953477;29;20864;-81
2023/01/02 02:54:41;;;;;;;9.10;4.40;;;9.40;99.90;;;;;;4954112;29;20237;-81
2023/01/02 02:57:10;;;;;;;7.73;4.60;;;9.40;99.90;;;;;;4954979;28;20979;-81
2023/01/02 02:59:38;;;;;;;7.40;4.47;;;9.40;99.90;;;;;;4952846;29;20786;-81
2023/01/02 03:02:06;;;;;;;10.87;4.83;;;9.40;99.90;;;;;;4952778;28;20324;-82
2023/01/02 03:04:33;;;;;;;10.27;4.20;;;9.50;99.90;;;;;;4951204;29;20231;-81
2023/01/02 03:07:15;;;;;;;8.70;5.27;;;9.50;99.90;;;;;;4953050;28;20719;-82
2023/01/02 03:09:54;;;;;;;10.97;4.90;;;9.50;99.90;;;;;;4953719;29;20227;-82
2023/01/02 03:12:34;;;;;;;6.13;4.10;;;9.60;99.90;;;;;;4954402;28;20310;-82
2023/01/02 03:15:10;;;;;;;8.57;5.27;;;9.60;99.90;;;;;;4953612;28;20664;-81
2023/01/02 03:17:49;;;;;;;9.03;4.80;;;9.60;99.90;;;;;;4953286;28;20227;-81
2023/01/02 03:20:22;;;;;;;8.37;4.37;;;9.60;99.90;;;;;;4950698;28;20227;-81
2023/01/02 03:22:53;;;;;;;11.17;5.20;;;9.60;99.90;;;;;;4951974;29;20227;-82
2023/01/02 03:25:22;;;;;;;9.53;4.60;;;9.60;99.90;;;;;;4948933;28;20723;-81
2023/01/02 03:27:51;;;;;;;10.60;5.23;;;9.60;99.90;;;;;;4942895;28;20262;-81
2023/01/02 03:30:20;;;;;;;6.07;3.97;;;9.60;99.90;;;;;;4951573;28;20266;-81
2023/01/02 03:32:53;;;;;;;7.87;4.17;;;9.60;99.90;;;;;;4950119;29;20237;-82
2023/01/02 03:35:24;;;;;;;6.83;3.50;;;9.70;99.90;;;;;;4950250;28;20227;-82
2023/01/02 03:37:55;;;;;;;6.83;4.10;;;9.70;99.90;;;;;;4933508;29;20317;-82
2023/01/02 03:40:26;;;;;;;10.63;4.17;;;9.70;99.90;;;;;;4932421;29;20306;-81
2023/01/02 03:42:58;;;;;;;6.67;4.07;;;9.70;99.90;;;;;;4948039;29;20235;-81
2023/01/02 03:45:29;;;;;;;6.70;4.30;;;9.70;99.90;;;;;;4930844;29;20242;-81
2023/01/02 03:48:03;;;;;;;7.80;3.90;;;9.80;99.90;;;;;;4953214;29;20227;-81
2023/01/02 03:50:36;;;;;;;8.03;4.00;;;9.80;99.90;;;;;;4953478;29;20242;-81
2023/01/02 03:53:03;;;;;;;9.97;4.30;;;9.80;99.90;;;;;;4936842;29;20231;-81
2023/01/02 03:55:34;;;;;;;9.47;4.13;;;9.80;99.90;;;;;;4935609;29;20285;-81
2023/01/02 03:58:09;;;;;;;10.97;4.63;;;9.80;99.90;;;;;;4936135;29;20239;-81
2023/01/02 04:00:41;;;;;;;7.90;4.20;;;9.90;99.90;;;;;;4935641;29;20236;-81
2023/01/02 04:03:13;;;;;;;5.40;3.77;;;9.90;99.90;;;;;;4935752;29;20235;-82
2023/01/02 04:05:45;;;;;;;8.40;3.60;;;9.90;99.90;;;;;;4935881;29;20231;-82
2023/01/02 04:08:18;;;;;;;8.83;4.20;;;10.00;99.90;;;;;;4933308;28;20741;-81
2023/01/02 04:10:49;;;;;;;7.93;3.83;;;10.00;99.90;;;;;;4931097;29;20238;-81
2023/01/02 04:13:20;;;;;;;11.30;4.30;;;10.10;99.90;;;;;;4930029;28;20231;-81
2023/01/02 04:15:50;;;;;;;8.17;3.70;;;10.10;99.90;;;;;;4948347;28;20231;-81
2023/01/02 04:18:22;;;;;;;7.43;4.17;;;10.10;99.90;;;;;;4930570;28;20227;-81
2023/01/02 04:20:53;;;;;;;8.33;4.00;;;10.20;99.90;;;;;;4931042;29;20238;-81
2023/01/02 04:23:23;;;;;;;7.37;3.93;;;10.20;99.90;;;;;;4930567;28;20235;-81
2023/01/02 04:25:55;;;;;;;6.40;3.23;;;10.30;99.90;;;;;;4930998;29;20244;-82
2023/01/02 04:28:25;;;;;;;9.17;3.30;;;10.30;99.90;;;;;;4930247;29;20235;-81
2023/01/02 04:30:57;;;;;;;9.50;3.70;;;10.30;99.90;;;;;;4947334;29;20886;-81
2023/01/02 04:33:27;;;;;;;7.97;3.57;;;10.40;99.90;;;;;;4933052;29;20242;-83
2023/01/02 04:35:54;;;;;;;9.33;3.97;;;10.40;99.90;;;;;;4935082;29;20243;-83
2023/01/02 04:38:21;;;;;;;10.17;4.03;;;10.40;99.90;;;;;;4950846;28;20261;-82
2023/01/02 04:40:48;;;;;;;12.53;4.00;;;10.50;99.90;;;;;;4936609;29;20973;-83
2023/01/02 04:43:20;;;;;;;8.70;3.63;;;10.50;99.90;;;;;;4935744;28;20665;-83
2023/01/02 04:45:47;;;;;;;8.93;4.10;;;10.50;99.90;;;;;;4935303;29;20735;-82
2023/01/02 04:48:16;;;;;;;8.20;3.53;;;10.60;99.90;;;;;;4935291;28;20282;-82
2023/01/02 04:50:45;;;;;;;9.37;3.20;;;10.60;99.90;;;;;;4952244;28;20293;-82
2023/01/02 04:53:12;;;;;;;8.40;3.47;;;10.60;99.90;;;;;;4933737;28;20259;-82
2023/01/02 04:55:39;;;;;;;9.77;3.73;;;10.70;99.90;;;;;;4953383;28;20756;-82
2023/01/02 04:58:06;;;;;;;6.50;3.40;;;10.60;99.90;;;;;;4949613;28;20248;-81
2023/01/02 05:00:33;;;;;;;8.73;3.67;;;10.70;99.90;;;;;;4933515;29;20943;-81
2023/01/02 05:03:02;;;;;;;7.60;3.43;;;10.70;99.90;;;;;;4931016;29;20898;-82
2023/01/02 05:05:32;;;;;;;7.20;3.70;;;10.70;99.90;;;;;;4936607;29;20978;-83
2023/01/02 05:08:00;;;;;;;10.13;4.10;;;10.60;99.90;;;;;;4936821;29;20232;-83
2023/01/02 05:10:28;;;;;;;9.47;3.87;;;10.70;99.90;;;;;;4953360;28;20219;-82
2023/01/02 05:12:57;;;;;;;9.70;3.97;;;10.70;99.90;;;;;;4950818;28;20278;-82
2023/01/02 05:15:25;;;;;;;8.73;3.50;;;10.70;99.90;;;;;;4949844;28;20835;-82
2023/01/02 05:17:52;;;;;;;8.37;4.00;;;10.60;99.90;;;;;;4951136;28;20229;-82
2023/01/02 05:20:19;;;;;;;10.43;3.80;;;10.60;99.90;;;;;;4952107;28;20236;-82
2023/01/02 05:25:46;;;;;;;8.33;3.30;;;10.60;99.90;;;;;;4875779;29;20240;-82
2023/01/02 05:28:13;;;;;;;6.90;3.60;;;10.60;99.90;;;;;;4875398;29;20260;-83
2023/01/02 05:30:40;;;;;;;8.27;3.80;;;10.60;99.90;;;;;;4915655;28;20232;-82
2023/01/02 05:33:07;;;;;;;8.23;3.67;;;10.60;99.90;;;;;;4948509;28;20234;-83
2023/01/02 05:35:34;;;;;;;7.40;3.87;;;10.50;99.90;;;;;;4943680;28;20246;-82
2023/01/02 05:38:01;;;;;;;9.87;4.13;;;10.50;99.90;;;;;;4948681;28;20234;-82
2023/01/02 05:40:28;;;;;;;8.73;4.37;;;10.50;99.90;;;;;;4931084;28;20902;-82
2023/01/02 05:42:57;;;;;;;6.90;4.20;;;10.50;99.90;;;;;;4932660;29;20247;-82
2023/01/02 05:45:24;;;;;;;7.33;4.07;;;10.40;99.90;;;;;;4931910;28;20239;-81
2023/01/02 05:47:50;;;;;;;7.67;4.50;;;10.40;99.90;;;;;;4944871;28;20396;-82
2023/01/02 05:50:17;;;;;;;11.93;4.10;;;10.30;99.90;;;;;;4932636;29;20919;-83
2023/01/02 05:52:44;;;;;;;8.53;4.13;;;10.30;99.90;;;;;;4951062;28;20235;-87
2023/01/02 05:55:11;;;;;;;8.37;4.17;;;10.30;99.90;;;;;;4950555;28;20698;-83
2023/01/02 05:57:37;;;;;;;8.33;4.40;;;10.20;99.90;;;;;;4934500;28;20227;-83
2023/01/02 06:00:06;;;;;;;8.33;3.87;;;10.20;99.90;;;;;;4950882;28;20328;-83
2023/01/02 06:02:39;;;;;;;7.77;4.30;;;10.20;99.90;;;;;;4950737;28;21058;-83
2023/01/02 06:05:06;;;;;;;12.43;4.80;;;10.20;99.90;;;;;;4949863;28;20238;-83
2023/01/02 06:07:33;;;;;;;7.07;3.57;;;10.20;99.90;;;;;;4934586;29;20230;-83
2023/01/02 06:10:00;;;;;;;8.10;4.43;;;10.20;99.90;;;;;;4936692;29;20655;-84
2023/01/02 06:12:27;;;;;;;8.80;4.10;;;10.30;99.90;;;;;;4935460;28;20353;-83
2023/01/02 06:14:54;;;;;;;10.73;4.23;;;10.30;99.90;;;;;;4936797;29;20235;-83
2023/01/02 06:17:22;;;;;;;9.70;3.90;;;10.30;99.90;;;;;;4935308;29;20227;-83
2023/01/02 06:19:49;;;;;;;7.03;4.30;;;10.30;99.90;;;;;;4931440;28;20324;-81
2023/01/02 06:22:16;;;;;;;10.37;4.40;;;10.40;99.90;;;;;;4934207;28;20226;-81
2023/01/02 06:24:43;;;;;;;6.27;3.90;;;10.40;99.90;;;;;;4928683;29;20724;-82
2023/01/02 06:27:10;;;;;;;8.43;4.30;;;10.40;99.90;;;;;;4943260;29;20218;-81
2023/01/02 06:29:36;;;;;;;10.73;4.50;;;10.50;99.90;;;;;;4931332;28;20240;-81
2023/01/02 06:32:03;;;;;;;10.80;4.00;;;10.50;99.90;;;;;;4944320;28;20223;-81
2023/01/02 06:34:31;;;;;;;10.07;4.07;;;10.50;99.90;;;;;;4932229;29;20255;-83
2023/01/02 06:36:58;;;;;;;10.30;3.90;;;10.50;99.90;;;;;;4923604;29;20234;-82
2023/01/02 06:39:25;;;;;;;8.87;4.03;;;10.50;99.90;;;;;;4927071;28;20227;-83
2023/01/02 06:41:52;;;;;;;12.57;4.63;;;10.60;99.90;;;;;;4930766;29;20232;-82
2023/01/02 06:44:19;;;;;;;9.83;4.87;;;10.60;99.90;;;;;;4945657;28;20228;-84
2023/01/02 06:46:45;;;;;;;11.07;4.23;;;10.60;99.90;;;;;;4932028;29;20249;-85
2023/01/02 06:49:12;;;;;;;14.50;3.93;;;10.60;99.90;;;;;;4931456;28;20252;-81
2023/01/02 06:51:40;;;;;;;11.10;4.60;;;10.60;99.90;;;;;;4945433;28;20223;-83
2023/01/02 06:54:07;;;;;;;10.50;4.73;;;10.60;99.90;;;;;;4926577;29;20240;-82
2023/01/02 06:56:34;;;;;;;13.00;5.23;;;10.60;99.90;;;;;;4926371;29;20283;-83
2023/01/02 06:59:01;;;;;;;8.47;4.53;;;10.60;99.90;;;;;;4929501;29;20556;-83
2023/01/02 07:01:28;;;;;;;6.73;4.30;;;10.60;99.90;;;;;;4943443;28;20248;-83
2023/01/02 07:03:55;;;;;;;10.40;4.33;;;10.60;99.90;;;;;;4926000;29;20233;-83
2023/01/02 07:06:22;;;;;;;10.50;4.60;;;10.60;99.90;;;;;;4941641;28;20247;-83
2023/01/02 07:08:52;;;;;;;6.93;4.10;;;10.60;99.90;;;;;;4939987;28;20904;-83
2023/01/02 07:11:20;;;;;;;7.30;4.00;;;10.60;99.90;;;;;;4939982;28;20231;-83
2023/01/02 07:13:49;;;;;;;9.30;4.70;;;10.60;99.90;;;;;;4944148;28;20232;-83
2023/01/02 07:16:19;;;;;;;12.17;4.40;;;10.60;99.90;;;;;;4926378;29;20227;-83
2023/01/02 07:18:47;;;;;;;10.53;4.27;;;10.60;99.90;;;;;;4924164;29;20228;-83
2023/01/02 07:21:16;;;;;;;7.60;4.50;;;10.70;99.90;;;;;;4941521;28;20233;-82
2023/01/02 07:23:44;;;;;;;11.57;4.87;;;10.70;99.90;;;;;;4928555;29;20326;-83
2023/01/02 07:26:14;;;;;;;12.00;5.10;;;10.70;99.90;;;;;;4945479;28;20283;-82
2023/01/02 07:28:41;;;;;;;7.13;4.37;;;10.70;99.90;;;;;;4929520;29;20223;-84
2023/01/02 07:31:11;;;;;;;12.00;4.73;;;10.70;99.90;;;;;;4922669;28;20470;-83
2023/01/02 07:33:38;;;;;;;7.77;4.83;;;10.70;99.90;;;;;;4924119;29;20241;-83
2023/01/02 07:36:07;;;;;;;10.50;4.50;;;10.70;99.90;;;;;;4943990;28;20232;-83
2023/01/02 07:38:34;;;;;;;8.30;4.10;;;10.70;99.90;;;;;;4935052;28;20232;-83
2023/01/02 07:41:01;;;;;;;11.07;4.20;;;10.70;99.90;;;;;;4943681;29;20596;-83
2023/01/02 07:43:29;;;;;;;10.80;4.67;;;10.80;99.90;;;;;;4945444;28;20920;-84
2023/01/02 07:46:02;;;;;;;10.97;5.07;;;10.80;99.90;;;;;;4943739;28;20229;-83
2023/01/02 07:48:31;;;;;;;10.67;4.10;;;10.80;99.90;;;;;;4925161;29;20228;-83
2023/01/02 07:51:02;;;;;;;6.50;4.30;;;10.80;99.90;;;;;;4922715;29;20303;-83
2023/01/02 07:53:31;;;;;;;8.73;4.23;;;10.80;99.90;;;;;;4939803;29;20231;-83
2023/01/02 07:55:59;;;;;;;9.63;3.90;;;10.80;99.90;;;;;;4937132;28;20228;-85
2023/01/02 07:58:26;;;;;;;9.77;3.90;;;10.80;99.90;;;;;;4918212;29;20253;-83
2023/01/02 08:00:58;;;;;;;9.10;4.40;;;10.90;99.90;;;;;;4927877;29;20236;-84
2023/01/02 08:03:25;;;;;;;6.87;3.70;;;10.90;99.90;;;;;;4921603;29;20233;-83
2023/01/02 08:05:55;;;;;;;9.00;4.37;;;10.90;99.90;;;;;;4934992;28;20244;-86
2023/01/02 08:08:22;;;;;;;8.00;3.80;;;10.90;99.90;;;;;;4927956;28;20229;-83
2023/01/02 08:10:49;;;;;;;12.27;4.60;;;10.90;99.90;;;;;;4929118;29;20235;-82
2023/01/02 08:13:17;;;;;;;10.00;4.60;;;10.90;99.90;;;;;;4923907;29;20243;-83
2023/01/02 08:15:43;;;;;;;8.43;4.23;;;10.90;99.90;;;;;;4921260;29;20259;-82
2023/01/02 08:18:14;;;;;;;8.63;4.50;;;10.90;99.90;;;;;;4924590;28;20238;-84
2023/01/02 08:20:41;;;;;;;9.87;4.17;;;10.90;99.90;;;;;;4924566;29;20331;-82
2023/01/02 08:23:08;;;;;;;11.23;4.40;;;11.00;99.90;;;;;;4940834;29;20863;-82
2023/01/02 08:25:34;;;;;;;8.17;4.53;;;11.00;99.90;;;;;;4940254;28;20729;-83
2023/01/02 08:28:01;;;;;;;12.17;4.73;;;11.00;99.90;;;;;;4930543;29;20236;-81
2023/01/02 08:30:28;;;;;;;10.67;4.43;;;11.00;99.90;;;;;;4941134;28;21039;-81
2023/01/02 08:32:54;;;;;;;9.63;4.30;;;11.00;99.90;;;;;;4926513;29;20248;-81
2023/01/02 08:35:23;;;;;;;7.13;3.77;;;11.00;99.90;;;;;;4931239;28;20847;-81
2023/01/02 08:37:49;;;;;;;6.53;3.70;;;11.10;99.90;;;;;;4940953;29;20225;-82
2023/01/02 08:40:19;;;;;;;10.00;4.37;;;11.10;99.90;;;;;;4940627;28;20607;-83
2023/01/02 08:42:46;;;;;;;9.37;4.67;;;11.10;99.90;;;;;;4922028;29;20225;-83
2023/01/02 08:45:12;;;;;;;9.30;4.13;;;11.20;99.90;;;;;;4938383;28;20238;-83
2023/01/02 08:47:39;;;;;;;9.97;3.87;;;11.10;99.90;;;;;;4926253;29;20276;-82
2023/01/02 08:50:06;;;;;;;8.43;4.33;;;11.10;99.90;;;;;;4915646;28;20271;-83
2023/01/02 08:52:35;;;;;;;7.80;4.30;;;11.20;99.90;;;;;;4924818;29;20230;-81
2023/01/02 08:55:04;;;;;;;7.50;4.03;;;11.10;99.90;;;;;;4938785;29;20243;-83
2023/01/02 08:57:32;;;;;;;7.63;4.10;;;11.20;99.90;;;;;;4935604;28;20224;-84
2023/01/02 08:59:59;;;;;;;7.27;3.90;;;11.20;99.90;;;;;;4919549;29;20226;-84
2023/01/02 09:02:26;;;;;;;10.20;4.23;;;11.20;99.90;;;;;;4926625;28;20775;-84
2023/01/02 09:04:52;;;;;;;9.23;4.30;;;11.30;99.90;;;;;;4934718;28;20243;-83
2023/01/02 09:07:19;;;;;;;7.97;4.17;;;11.30;99.90;;;;;;4938053;28;20228;-84
2023/01/02 09:09:47;;;;;;;6.60;3.50;;;11.30;99.90;;;;;;4927055;29;20239;-84
2023/01/02 09:12:15;;;;;;;8.00;4.10;;;11.30;99.90;;;;;;4944994;28;20223;-84
2023/01/02 09:14:42;;;;;;;10.67;4.03;;;11.30;99.90;;;;;;4925459;29;20233;-85
2023/01/02 09:17:09;;;;;;;5.60;3.83;;;11.30;99.90;;;;;;4924776;28;20225;-84
2023/01/02 09:19:36;;;;;;;9.00;3.80;;;11.40;99.90;;;;;;4935425;29;20592;-83
2023/01/02 09:22:03;;;;;;;7.60;4.03;;;11.40;99.90;;;;;;4930906;29;20220;-85
2023/01/02 09:24:29;;;;;;;7.07;3.90;;;11.40;99.90;;;;;;4921727;28;20317;-84
2023/01/02 09:26:59;;;;;;;6.30;3.53;;;11.50;99.90;;;;;;4933897;29;20230;-84
2023/01/02 09:29:25;;;;;;;6.33;3.93;;;11.50;99.90;;;;;;4945035;28;20324;-84
2023/01/02 09:31:52;;;;;;;6.37;3.83;;;11.50;99.90;;;;;;4927141;29;20233;-84
2023/01/02 09:34:19;;;;;;;9.47;3.97;;;11.60;99.90;;;;;;4927544;28;20228;-84
2023/01/02 09:36:46;;;;;;;6.70;3.80;;;11.60;99.90;;;;;;4932063;28;20229;-83
2023/01/02 09:39:13;;;;;;;10.03;3.60;;;11.60;99.90;;;;;;4932312;28;20257;-84
2023/01/02 09:41:43;;;;;;;9.00;4.00;;;11.60;99.90;;;;;;4924262;29;20234;-83
2023/01/02 09:44:17;;;;;;;6.90;3.70;;;11.60;99.90;;;;;;4926239;28;20232;-83
2023/01/02 09:46:49;;;;;;;5.90;3.60;;;11.70;99.90;;;;;;4927259;29;20227;-82
2023/01/02 09:49:19;;;;;;;7.27;3.73;;;11.70;99.90;;;;;;4939161;28;20231;-82
2023/01/02 09:51:46;;;;;;;7.50;4.23;;;11.70;99.90;;;;;;4943193;28;20369;-83
2023/01/02 09:54:20;;;;;;;6.87;4.03;;;11.80;99.90;;;;;;4938971;28;20232;-83
2023/01/02 09:56:54;;;;;;;12.13;6.13;;;11.80;99.90;;;;;;4922943;29;20732;-83
2023/01/02 09:59:29;;;;;;;6.10;3.63;;;11.80;99.90;;;;;;4929659;28;20306;-83
2023/01/02 10:02:08;;;;;;;6.90;4.87;;;11.80;99.90;;;;;;4943258;28;20226;-83
2023/01/02 10:04:51;;;;;;;6.60;4.00;;;11.90;99.90;;;;;;4944098;28;20250;-83
2023/01/02 10:07:26;;;;;;;11.90;6.43;;;11.80;99.90;;;;;;4944328;28;20230;-83
2023/01/02 10:09:57;;;;;;;6.67;3.60;;;11.90;99.90;;;;;;4924660;29;20245;-83
2023/01/02 10:12:29;;;;;;;7.53;3.87;;;11.90;99.90;;;;;;4927852;28;21206;-82
2023/01/02 10:15:01;;;;;;;5.03;3.47;;;11.90;99.90;;;;;;4928272;29;20238;-83
2023/01/02 10:17:31;;;;;;;8.80;3.93;;;11.90;99.90;;;;;;4939130;28;20238;-83
2023/01/02 10:20:02;;;;;;;7.73;3.10;;;11.90;99.90;;;;;;4943182;28;20225;-83
2023/01/02 10:22:41;;;;;;;6.07;3.20;;;11.90;99.90;;;;;;4938503;28;20865;-82
2023/01/02 10:25:14;;;;;;;6.43;3.57;;;11.90;99.90;;;;;;4937054;28;20389;-83
2023/01/02 10:27:50;;;;;;;7.10;3.37;;;12.00;99.90;;;;;;4925688;29;20226;-83
2023/01/02 10:30:21;;;;;;;7.60;3.50;;;12.00;99.90;;;;;;4934770;28;20225;-82
2023/01/02 10:32:55;;;;;;;7.40;3.13;;;12.00;99.90;;;;;;4927390;29;20585;-83
2023/01/02 10:35:32;;;;;;;9.13;3.50;;;12.00;99.90;;;;;;4926964;29;20355;-82
2023/01/02 10:37:58;;;;;;;7.40;3.50;;;12.00;99.90;;;;;;4925526;29;20237;-83
2023/01/02 10:40:25;;;;;;;6.60;3.20;;;12.00;99.90;;;;;;4922281;29;20230;-82
2023/01/02 10:42:56;;;;;;;6.77;2.83;;;12.10;99.90;;;;;;4942505;28;20256;-83
2023/01/02 10:45:25;;;;;;;6.57;3.00;;;12.10;99.90;;;;;;4929692;28;20311;-83
2023/01/02 10:47:51;;;;;;;4.90;2.83;;;12.10;99.90;;;;;;4929673;29;20236;-82
2023/01/02 10:50:21;;;;;;;6.00;3.00;;;12.10;99.90;;;;;;4945807;28;20292;-83
2023/01/02 10:52:53;;;;;;;5.83;3.03;;;12.10;99.90;;;;;;4930106;29;20228;-83
2023/01/02 10:55:33;;;;;;;4.87;3.17;;;12.10;99.90;;;;;;4929732;29;20235;-83
2023/01/02 10:58:05;;;;;;;4.60;2.60;;;12.10;99.90;;;;;;4930565;29;20225;-83
2023/01/02 11:00:36;;;;;;;4.90;3.07;;;12.20;99.90;;;;;;4938799;28;20226;-83
2023/01/02 11:03:08;;;;;;;4.43;2.97;;;12.10;99.90;;;;;;4921358;29;20325;-84
2023/01/02 11:05:46;;;;;;;4.87;2.50;;;12.10;99.90;;;;;;4925912;29;21025;-85
2023/01/02 11:08:15;;;;;;;4.80;2.53;;;12.10;99.90;;;;;;4925981;29;20232;-84
2023/01/02 11:10:42;;;;;;;5.20;2.47;;;12.10;99.90;;;;;;4940686;29;20233;-85
2023/01/02 11:13:11;;;;;;;4.23;2.63;;;12.00;99.90;;;;;;4926565;28;20839;-84
2023/01/02 11:15:48;;;;;;;6.73;2.80;;;12.00;99.90;;;;;;4924373;29;20315;-84
2023/01/02 11:18:22;;;;;;;4.27;2.43;;;12.00;99.90;;;;;;4941309;28;20268;-83
2023/01/02 11:20:53;;;;;;;3.77;2.50;;;11.90;99.90;;;;;;4925805;29;20230;-84
2023/01/02 11:23:24;;;;;;;3.40;2.50;;;11.90;99.90;;;;;;4924218;28;20229;-85
2023/01/02 11:25:53;;;;;;;4.47;2.50;;;11.80;99.90;;;;;;4923867;29;21086;-85
2023/01/02 11:28:23;;;;;;;4.80;3.17;;;11.80;99.90;;;;;;4925867;29;20248;-84
2023/01/02 11:30:53;;;;;;;4.77;2.70;;;11.80;99.90;;;;;;4938847;28;20306;-83
2023/01/02 11:33:27;;;;;;;4.80;2.93;;;11.80;99.90;;;;;;4924395;28;20761;-85
2023/01/02 11:35:56;;;;;;;6.17;2.77;;;11.80;99.90;;;;;;4927345;28;20219;-86
2023/01/02 11:38:26;;;;;;;5.60;2.67;;;11.80;99.90;;;;;;4922768;29;20809;-85
2023/01/02 11:40:58;;;;;;;3.00;2.13;;;11.70;99.90;;;;;;4931448;28;20226;-85
2023/01/02 11:43:48;;;;;;;3.23;1.77;;;11.70;99.90;;;;;;4943148;28;20295;-85
2023/01/02 11:46:27;;;;;;;6.80;4.87;;;11.70;99.90;;;;;;4924146;28;20702;-85
2023/01/02 11:48:59;;;;;;;4.13;2.83;;;11.60;99.90;;;;;;4925898;28;20229;-85
2023/01/02 11:51:28;;;;;;;7.60;4.77;;;11.60;99.90;;;;;;4922283;28;20756;-85
2023/01/02 11:53:59;;;;;;;7.70;5.33;;;11.50;99.90;;;;;;4940316;28;20223;-85
2023/01/02 11:56:31;;;;;;;2.77;1.60;;;11.40;99.90;;;;;;4937275;28;20233;-86
2023/01/02 11:59:04;;;;;;;1.83;1.33;;;11.40;99.90;;;;;;4947963;28;20579;-85
2023/01/02 12:01:41;;;;;;;1.37;0.97;;;11.30;99.90;;;;;;4941460;28;20751;-85
2023/01/02 12:04:08;;;;;;;1.10;0.80;;;11.20;99.90;;;;;;4936692;28;20237;-85
2023/01/02 12:06:47;;;;;;;0.60;0.53;;;11.10;99.90;;;;;;4928705;28;20227;-84
2023/01/02 12:09:22;;;;;;;0.30;0.30;;;11.00;99.90;;;;;;4920115;29;20613;-85
2023/01/02 12:12:03;;;;;;;0.70;0.50;;;10.90;99.90;;;;;;4923599;29;20243;-84
2023/01/02 12:14:46;;;;;;;0.73;0.60;;;10.70;99.90;;;;;;4941492;28;20231;-85
2023/01/02 12:17:20;;;;;;;1.13;0.50;;;10.60;99.90;;;;;;4926792;28;20317;-84
2023/01/02 12:20:09;;;;;;;0.67;0.50;;;10.50;99.90;;;;;;4905111;28;20263;-83
2023/01/02 12:23:07;;;;;;;0.50;0.50;;;10.30;99.90;;;;;;4917167;28;20221;-84
2023/01/02 12:25:53;;;;;;;1.13;0.80;;;10.20;99.90;;;;;;4935650;29;20231;-84
2023/01/02 12:28:41;;;;;;;0.63;0.63;;;10.20;99.90;;;;;;4930550;28;20351;-82
2023/01/02 12:31:23;;;;;;;0.80;0.70;;;10.10;99.90;;;;;;4931016;28;20235;-83
2023/01/02 12:33:59;;;;;;;0.83;0.83;;;10.00;99.90;;;;;;4948688;28;20239;-82
2023/01/02 12:36:48;;;;;;;0.70;0.63;;;9.90;99.90;;;;;;4921215;28;20227;-81
2023/01/02 12:39:33;;;;;;;2.10;0.80;;;9.90;99.90;;;;;;4932041;28;20604;-83
2023/01/02 12:42:14;;;;;;;1.10;1.00;;;9.80;99.90;;;;;;4931705;29;20233;-82
2023/01/02 12:44:49;;;;;;;1.27;0.90;;;9.80;99.90;;;;;;4931346;28;20235;-82
2023/01/02 12:47:35;;;;;;;3.43;2.23;;;9.70;99.90;;;;;;4930399;28;20298;-82
2023/01/02 12:50:28;;;;;;;1.63;0.90;;;9.60;99.90;;;;;;4931998;29;20577;-83
2023/01/02 12:53:06;;;;;;;1.13;0.90;;;9.60;99.90;;;;;;4916705;29;20865;-82
2023/01/02 12:55:45;;;;;;;1.10;0.70;;;9.60;99.90;;;;;;4931126;29;20231;-81
2023/01/02 12:58:23;;;;;;;1.07;0.70;;;9.60;99.90;;;;;;4948408;28;20261;-81
2023/01/02 13:01:00;;;;;;;0.77;0.67;;;9.50;99.90;;;;;;4947477;28;20229;-82
2023/01/02 13:03:49;;;;;;;0.77;0.60;;;9.50;99.90;;;;;;4925040;28;20234;-83
2023/01/02 13:06:25;;;;;;;1.10;0.83;;;9.40;99.90;;;;;;4948553;28;20231;-83
2023/01/02 13:08:58;;;;;;;0.60;0.50;;;9.50;99.90;;;;;;4948690;28;20227;-83